Time;durP1;ratioP1;P1;durP2;ratioP2;P2;SDS_P1;SDS_P2;PMS_P1;PMS_P2;Temp;Humidity;BMP_temperature;BMP_pressure;BME280_temperature;BME280_humidity;BME280_pressure;Samples;Min_cycle;Max_cycle;Signal;HPM_P1;HPM_P2
2021/01/24 00:00:34;;;;;;;;;4.50;4.50;17.80;62.10;;;16.50;48.59;101285.81;5028235;28;8818;-51
2021/01/24 00:03:00;;;;;;;;;4.50;4.50;17.80;62.60;;;16.58;50.25;101288.66;5019945;28;8823;-56
2021/01/24 00:05:27;;;;;;;;;5.75;5.75;17.80;64.70;;;16.61;49.05;101291.09;5024115;28;8818;-54
2021/01/24 00:07:54;;;;;;;;;6.00;5.00;17.80;63.50;;;16.62;49.96;101292.78;5023436;28;8788;-53
2021/01/24 00:10:21;;;;;;;;;5.00;4.00;17.90;64.00;;;16.66;49.54;101293.38;5021217;28;8805;-56
2021/01/24 00:12:48;;;;;;;;;6.75;5.00;17.80;62.40;;;16.68;49.38;101278.91;5025345;28;8775;-58
2021/01/24 00:15:15;;;;;;;;;2.50;2.50;17.90;63.10;;;16.70;49.06;101287.66;5026925;28;9689;-63
2021/01/24 00:17:42;;;;;;;;;5.00;5.00;17.90;63.20;;;16.71;48.31;101281.34;5019140;28;8772;-66
2021/01/24 00:20:10;;;;;;;;;5.00;4.00;17.90;62.60;;;16.74;48.20;101287.38;5030017;28;8838;-66
2021/01/24 00:22:37;;;;;;;;;4.25;4.25;18.00;62.50;;;16.77;47.70;101289.81;5026075;28;8800;-67
2021/01/24 00:25:06;;;;;;;;;2.25;2.25;18.00;62.20;;;16.77;47.58;101285.31;5024503;28;8846;-65
2021/01/24 00:27:33;;;;;;;;;5.50;5.50;18.00;62.10;;;16.78;47.46;101288.88;5027654;28;8778;-64
2021/01/24 00:30:01;;;;;;;;;5.50;5.25;18.00;62.10;;;16.81;47.66;101285.94;5025129;28;8886;-66
2021/01/24 00:32:28;;;;;;;;;4.00;4.00;18.00;62.20;;;16.83;47.82;101278.66;5025212;28;8895;-64
2021/01/24 00:34:55;;;;;;;;;3.25;3.25;18.10;62.20;;;16.87;49.18;101285.44;5027259;28;8820;-63
2021/01/24 00:37:21;;;;;;;;;5.25;5.25;18.10;62.30;;;16.90;51.26;101285.16;5019807;28;9620;-64
2021/01/24 00:39:48;;;;;;;;;4.75;4.75;18.10;64.80;;;16.93;51.40;101284.91;5023775;28;9556;-55
2021/01/24 00:42:15;;;;;;;;;5.25;4.75;18.10;64.40;;;16.93;50.61;101285.75;5023229;28;8926;-63
2021/01/24 00:44:42;;;;;;;;;6.00;6.00;18.20;65.20;;;16.97;49.83;101281.00;5028772;28;8800;-60
2021/01/24 00:47:09;;;;;;;;;5.25;5.00;18.20;64.50;;;17.00;49.90;101283.41;5027391;28;8857;-65
2021/01/24 00:49:36;;;;;;;;;8.75;6.50;18.20;64.40;;;17.05;51.02;101297.22;5031345;28;8889;-63
2021/01/24 00:52:03;;;;;;;;;5.50;5.50;18.20;64.50;;;17.09;51.82;101293.28;5030513;28;8821;-62
2021/01/24 00:54:30;;;;;;;;;4.50;4.50;18.30;65.50;;;17.13;51.81;101293.88;5019975;28;8780;-68
2021/01/24 00:56:57;;;;;;;;;6.50;5.00;18.40;65.90;;;17.17;51.32;101297.97;5027518;28;8794;-61
2021/01/24 00:59:23;;;;;;;;;2.50;2.25;18.40;65.00;;;17.20;50.62;101291.50;5027098;28;8830;-65
2021/01/24 01:01:50;;;;;;;;;5.75;5.00;18.40;65.20;;;17.25;51.52;101305.31;5024297;28;8906;-71
2021/01/24 01:04:17;;;;;;;;;5.75;5.50;18.40;65.70;;;17.26;51.70;101307.03;5028118;28;9465;-65
2021/01/24 01:06:44;;;;;;;;;4.00;4.00;18.50;65.60;;;17.29;51.07;101310.25;5011186;28;8862;-62
2021/01/24 01:09:11;;;;;;;;;5.25;4.00;18.60;65.50;;;17.29;50.30;101302.25;5020269;28;8793;-65
2021/01/24 01:11:37;;;;;;;;;4.75;4.75;18.50;65.20;;;17.33;51.21;101308.19;5024869;28;8796;-65
2021/01/24 01:14:04;;;;;;;;;4.75;4.50;18.60;64.80;;;17.35;50.76;101311.56;5027439;28;8782;-62
2021/01/24 01:16:31;;;;;;;;;7.00;7.00;18.50;65.00;;;17.36;50.92;101314.09;5028591;28;8822;-65
2021/01/24 01:18:58;;;;;;;;;5.50;4.75;18.50;64.80;;;17.35;50.43;101314.22;5024451;28;8798;-58
2021/01/24 01:21:25;;;;;;;;;4.75;4.75;18.50;65.00;;;17.37;51.18;101325.63;5025972;28;8820;-56
2021/01/24 01:23:52;;;;;;;;;5.50;4.75;18.50;66.30;;;17.39;51.29;101317.50;5018786;28;8843;-57
2021/01/24 01:26:19;;;;;;;;;5.50;4.75;18.40;66.40;;;17.39;51.05;101322.84;5023073;28;8814;-56
2021/01/24 01:28:46;;;;;;;;;4.00;3.50;18.50;66.10;;;17.44;51.04;101308.09;5028155;28;8779;-57
2021/01/24 01:31:13;;;;;;;;;1.75;1.75;18.60;65.60;;;17.48;50.75;101312.19;5028704;28;8816;-57
2021/01/24 01:33:39;;;;;;;;;1.00;1.00;18.80;65.10;;;17.54;50.64;101316.16;5023302;28;8794;-57
2021/01/24 01:36:07;;;;;;;;;3.25;3.00;19.00;64.60;;;17.59;50.42;101319.28;5022666;28;8806;-56
2021/01/24 01:38:33;;;;;;;;;3.00;3.00;19.10;64.30;;;17.68;50.56;101318.47;5020846;28;8830;-57
2021/01/24 01:41:00;;;;;;;;;2.75;2.00;19.10;63.90;;;17.74;50.22;101311.75;5017716;28;8916;-56
2021/01/24 01:43:27;;;;;;;;;2.00;2.00;19.40;63.80;;;17.78;50.22;101303.34;5025059;28;8802;-56
2021/01/24 01:45:54;;;;;;;;;1.00;1.00;19.50;63.60;;;17.84;50.16;101312.66;5017910;28;8841;-56
2021/01/24 01:48:21;;;;;;;;;2.00;2.00;19.70;63.60;;;17.92;50.27;101323.50;5023356;28;8814;-56
2021/01/24 01:50:48;;;;;;;;;2.25;2.00;19.80;63.50;;;17.96;50.06;101322.28;5022066;28;8774;-57
2021/01/24 01:53:15;;;;;;;;;3.00;3.00;19.70;63.30;;;18.03;50.08;101325.22;5023632;28;8907;-56
2021/01/24 01:55:42;;;;;;;;;1.50;1.50;19.90;63.40;;;18.11;50.05;101317.34;5021083;28;8818;-57
2021/01/24 01:58:08;;;;;;;;;1.50;1.50;19.80;63.20;;;18.14;49.92;101335.81;5027142;28;8781;-57
2021/01/24 02:00:35;;;;;;;;;2.50;2.50;19.80;63.10;;;18.19;50.13;101335.38;5016002;28;8798;-56
2021/01/24 02:03:32;;;;;;;;;2.00;1.00;20.20;63.20;;;18.26;49.82;101341.88;5014934;28;8878;-56
2021/01/24 02:06:31;;;;;;;;;1.00;1.00;20.20;63.00;;;18.34;49.82;101342.06;5018817;28;8880;-55
2021/01/24 02:09:29;;;;;;;;;2.00;2.00;20.20;62.80;;;18.41;49.72;101337.81;5018153;28;8974;-55
2021/01/24 02:12:52;;;;;;;;;0.50;0.50;20.30;62.80;;;18.46;49.72;101331.22;5021063;28;8772;-51
2021/01/24 02:15:21;;;;;;;;;1.00;1.00;20.30;62.60;;;18.43;50.03;101333.19;5018589;28;8925;-56
2021/01/24 02:17:56;;;;;;;;;2.00;1.00;20.20;62.80;;;18.42;49.85;101338.69;5011151;28;8803;-55
2021/01/24 02:21:00;;;;;;;;;2.00;1.00;20.10;63.10;;;18.46;49.70;101345.44;5006910;28;8950;-55
2021/01/24 02:23:28;;;;;;;;;1.00;1.00;20.10;63.40;;;18.50;49.55;101341.53;5010278;28;8814;-56
2021/01/24 02:26:20;;;;;;;;;0.75;0.75;20.20;63.50;;;18.56;49.50;101337.44;5007166;28;8894;-57
2021/01/24 02:29:32;;;;;;;;;1.50;1.50;20.10;63.20;;;18.62;49.37;101339.53;5021064;28;8802;-56
2021/01/24 02:32:02;;;;;;;;;2.00;1.00;20.30;63.10;;;18.62;49.47;101339.53;5017568;28;8811;-56
2021/01/24 02:34:35;;;;;;;;;0.50;0.50;20.30;62.90;;;18.60;49.57;101339.69;5023475;28;9491;-57
2021/01/24 02:37:04;;;;;;;;;1.00;1.00;20.10;63.70;;;18.60;49.39;101337.03;5013069;28;9511;-56
2021/01/24 02:39:33;;;;;;;;;1.00;1.00;20.10;63.40;;;18.65;49.30;101344.63;5021773;28;8932;-57
2021/01/24 02:42:01;;;;;;;;;0.00;0.00;20.30;63.50;;;18.70;49.44;101345.06;5028339;28;8844;-56
2021/01/24 02:44:29;;;;;;;;;0.00;0.00;20.20;63.40;;;18.71;49.24;101349.41;5009423;28;8814;-57
2021/01/24 02:47:00;;;;;;;;;1.00;1.00;20.30;63.30;;;18.70;49.26;101338.84;5016619;28;8820;-57
2021/01/24 02:49:29;;;;;;;;;0.00;0.00;20.20;63.20;;;18.72;49.48;101339.53;5010555;28;8960;-58
2021/01/24 02:51:57;;;;;;;;;1.00;1.00;20.10;63.60;;;18.73;49.78;101342.09;5028885;28;8837;-57
2021/01/24 02:54:25;;;;;;;;;0.00;0.00;20.20;63.80;;;18.78;49.53;101339.88;5007084;28;8818;-56
2021/01/24 02:56:52;;;;;;;;;1.00;1.00;20.30;63.70;;;18.77;49.74;101330.13;5018618;28;9691;-57
2021/01/24 02:59:20;;;;;;;;;1.75;1.00;20.10;63.40;;;18.75;49.79;101334.81;5011249;28;9002;-57
2021/01/24 03:01:47;;;;;;;;;1.50;1.50;20.40;63.80;;;18.74;49.74;101327.72;5018199;28;8819;-57
2021/01/24 03:04:14;;;;;;;;;1.00;1.00;20.10;64.10;;;18.77;49.66;101330.13;5026437;28;8860;-57
2021/01/24 03:06:41;;;;;;;;;1.00;1.00;20.10;63.90;;;18.78;49.61;101326.50;5025240;28;9633;-57
2021/01/24 03:09:08;;;;;;;;;1.00;1.00;20.30;63.70;;;18.79;49.60;101330.00;5023459;28;8834;-58
2021/01/24 03:11:40;;;;;;;;;1.00;1.00;20.50;63.80;;;18.77;49.74;101330.13;5024911;28;8797;-58
2021/01/24 03:14:20;;;;;;;;;1.75;1.75;20.20;64.00;;;18.81;50.00;101338.75;5030058;28;8773;-58
2021/01/24 03:16:50;;;;;;;;;1.75;1.00;20.30;64.60;;;18.85;50.54;101340.13;5015880;28;8811;-56
2021/01/24 03:19:23;;;;;;;;;1.75;1.00;20.20;64.60;;;18.92;50.78;101332.38;5031375;28;8942;-57
2021/01/24 03:21:52;;;;;;;;;1.75;1.75;20.20;64.50;;;18.94;50.45;101338.47;5008301;28;8785;-57
2021/01/24 03:24:23;;;;;;;;;1.00;1.00;20.50;64.20;;;18.92;50.25;101327.03;5019743;28;8814;-57
2021/01/24 03:26:51;;;;;;;;;1.50;1.50;20.50;64.20;;;18.90;50.25;101327.16;5033131;28;8804;-59
2021/01/24 03:29:19;;;;;;;;;1.00;1.00;20.60;64.50;;;18.92;50.39;101341.25;5022921;28;8807;-57
2021/01/24 03:31:47;;;;;;;;;4.25;3.00;20.20;65.00;;;18.92;50.60;101340.41;5010717;28;8806;-52
2021/01/24 03:34:25;;;;;;;;;4.00;3.00;20.20;65.20;;;18.98;50.73;101337.16;5023052;28;8825;-55
2021/01/24 03:36:54;;;;;;;;;2.00;1.25;20.20;65.20;;;18.95;50.58;101340.13;5031397;28;8796;-56
2021/01/24 03:39:21;;;;;;;;;1.75;1.75;20.40;65.00;;;18.93;50.56;101337.63;5026924;28;8900;-55
2021/01/24 03:41:48;;;;;;;;;2.00;2.00;20.30;64.90;;;18.93;50.75;101340.28;5018980;28;8793;-56
2021/01/24 03:44:16;;;;;;;;;2.00;2.00;20.20;65.10;;;18.91;50.60;101338.75;5018258;28;8810;-55
2021/01/24 03:46:42;;;;;;;;;1.00;1.00;20.00;65.20;;;18.89;51.24;101346.06;5019992;28;9573;-54
2021/01/24 03:49:09;;;;;;;;;2.50;0.75;20.00;65.90;;;18.89;51.18;101336.19;5025135;28;8819;-56
2021/01/24 03:51:36;;;;;;;;;0.75;0.75;20.20;66.10;;;18.92;51.48;101341.25;5019398;28;8824;-55
2021/01/24 03:54:03;;;;;;;;;2.00;1.50;20.40;66.40;;;18.91;51.54;101334.22;5021565;28;8812;-56
2021/01/24 03:56:30;;;;;;;;;2.00;2.00;20.20;66.00;;;18.92;51.25;101329.72;5031272;28;8806;-55
2021/01/24 03:58:56;;;;;;;;;1.00;1.00;20.20;65.90;;;18.89;51.27;101328.16;5025006;28;8781;-56
2021/01/24 04:01:23;;;;;;;;;2.00;1.50;20.10;66.00;;;18.87;51.20;101328.28;5015247;28;8792;-56
2021/01/24 04:03:50;;;;;;;;;1.00;1.00;20.10;66.10;;;18.86;50.98;101326.63;5016689;28;8808;-56
2021/01/24 04:06:17;;;;;;;;;2.50;2.50;20.00;66.20;;;18.87;51.71;101330.13;5020324;28;8852;-56
2021/01/24 04:08:44;;;;;;;;;2.00;2.00;20.10;67.00;;;18.84;51.85;101317.88;5024605;28;8830;-56
2021/01/24 04:11:11;;;;;;;;;1.00;1.00;20.10;67.00;;;18.88;52.39;101313.09;5027854;28;8798;-57
2021/01/24 04:13:37;;;;;;;;;1.00;1.00;20.10;67.40;;;18.88;52.38;101313.09;5025402;28;8811;-57
2021/01/24 04:16:05;;;;;;;;;1.50;1.50;20.20;67.30;;;18.85;52.27;101303.53;5028317;28;8910;-57
2021/01/24 04:18:31;;;;;;;;;1.50;1.00;20.00;67.00;;;18.84;52.11;101307.16;5027902;28;8933;-56
2021/01/24 04:20:58;;;;;;;;;3.00;2.00;20.00;66.90;;;18.84;52.14;101317.88;5023096;28;8955;-56
2021/01/24 04:23:25;;;;;;;;;2.00;1.00;19.90;67.00;;;18.82;52.01;101319.00;5032264;28;8790;-55
2021/01/24 04:25:52;;;;;;;;;1.00;1.00;20.00;67.10;;;18.82;52.38;101319.00;5026414;28;8807;-56
2021/01/24 04:28:19;;;;;;;;;1.25;1.25;19.90;67.60;;;18.82;52.87;101317.16;5032362;28;8787;-56
2021/01/24 04:30:45;;;;;;;;;1.00;1.00;20.00;67.80;;;18.84;52.84;101317.88;5018499;28;9514;-56
2021/01/24 04:33:12;;;;;;;;;1.25;1.25;20.10;67.80;;;18.84;52.69;101317.03;5015105;28;8802;-56
2021/01/24 04:35:39;;;;;;;;;1.00;1.00;20.00;67.40;;;18.83;52.54;101315.38;5032579;28;8846;-55
2021/01/24 04:38:06;;;;;;;;;1.00;1.00;20.00;67.40;;;18.82;52.47;101309.13;5026460;28;8907;-56
2021/01/24 04:40:33;;;;;;;;;1.50;1.50;20.00;67.50;;;18.80;52.34;101315.63;5017949;28;8804;-56
2021/01/24 04:43:00;;;;;;;;;1.00;1.00;19.80;67.40;;;18.77;52.35;101316.75;5029162;28;8789;-56
2021/01/24 04:45:29;;;;;;;;;1.00;1.00;19.90;67.80;;;18.77;52.82;101327.47;5031335;28;8826;-54
2021/01/24 04:47:57;;;;;;;;;3.00;1.75;20.00;67.90;;;18.80;52.62;101318.28;5022905;28;8784;-55
2021/01/24 04:50:26;;;;;;;;;1.00;0.75;20.00;67.60;;;18.81;52.67;101317.34;5031378;28;8916;-56
2021/01/24 04:52:56;;;;;;;;;1.00;1.00;20.00;67.30;;;18.80;52.52;101332.56;5023315;28;8804;-55
2021/01/24 04:55:24;;;;;;;;;1.25;1.25;20.00;67.40;;;18.80;52.56;101334.34;5023998;28;8861;-55
2021/01/24 04:57:56;;;;;;;;;0.00;0.00;19.80;68.20;;;18.79;52.80;101333.53;5022558;28;8900;-55
2021/01/24 05:00:24;;;;;;;;;2.00;1.00;19.90;68.00;;;18.82;53.05;101333.22;5028185;28;8860;-55
2021/01/24 05:02:51;;;;;;;;;0.00;0.00;20.00;68.00;;;18.82;52.44;101327.03;5028173;28;8797;-55
2021/01/24 05:05:17;;;;;;;;;0.00;0.00;20.20;67.30;;;18.82;52.30;101327.88;5029709;28;8893;-55
2021/01/24 05:07:58;;;;;;;;;0.75;0.00;19.80;67.00;;;18.81;52.47;101325.38;5013965;28;8816;-55
2021/01/24 05:10:30;;;;;;;;;1.25;0.00;19.90;67.20;;;18.79;52.51;101336.19;5028077;28;8790;-55
2021/01/24 05:12:58;;;;;;;;;0.75;0.75;20.00;67.50;;;18.78;52.57;101331.84;5015344;28;8823;-55
2021/01/24 05:15:27;;;;;;;;;1.00;1.00;20.00;67.90;;;18.79;52.27;101330.84;5026701;28;8822;-54
2021/01/24 05:17:59;;;;;;;;;0.50;0.50;19.90;67.50;;;18.81;52.11;101320.00;5029199;28;8815;-55
2021/01/24 05:20:33;;;;;;;;;1.00;1.00;20.00;67.00;;;18.80;52.29;101321.84;5010353;28;8939;-55
2021/01/24 05:23:01;;;;;;;;;0.25;0.25;20.00;66.90;;;18.81;52.20;101326.19;5019438;28;8827;-55
2021/01/24 05:25:32;;;;;;;;;0.75;0.50;20.00;67.20;;;18.80;52.30;101320.97;5027968;28;9683;-55
2021/01/24 05:28:20;;;;;;;;;0.75;0.75;19.90;67.30;;;18.77;52.19;101327.47;5004120;28;8812;-56
2021/01/24 05:30:47;;;;;;;;;1.00;1.00;19.90;67.50;;;18.76;52.48;101325.78;5021138;28;8899;-56
2021/01/24 05:33:20;;;;;;;;;0.50;0.50;19.60;67.40;;;18.74;52.27;101332.22;5024204;28;8823;-56
2021/01/24 05:35:50;;;;;;;;;0.00;0.00;19.70;67.50;;;18.77;52.50;101342.69;5028172;28;8817;-56
2021/01/24 05:38:32;;;;;;;;;1.00;1.00;19.90;67.90;;;18.78;52.35;101334.50;5031678;28;8841;-56
2021/01/24 05:41:16;;;;;;;;;1.00;1.00;20.00;67.40;;;18.78;52.29;101334.50;5025471;28;8824;-55
2021/01/24 05:43:45;;;;;;;;;1.00;1.00;20.00;66.90;;;18.78;52.19;101326.50;5025599;28;8800;-54
2021/01/24 05:46:13;;;;;;;;;0.25;0.25;20.10;67.10;;;18.76;52.36;101320.44;5028238;28;8925;-56
2021/01/24 05:48:50;;;;;;;;;1.00;1.00;19.90;67.20;;;18.75;52.12;101326.78;5013802;28;8826;-56
2021/01/24 05:51:17;;;;;;;;;0.00;0.00;19.80;67.40;;;18.72;52.45;101318.13;5029798;28;8795;-56
2021/01/24 05:53:50;;;;;;;;;1.00;1.00;19.90;67.60;;;18.71;52.07;101317.28;5027368;28;8792;-56
2021/01/24 05:56:20;;;;;;;;;1.00;1.00;19.80;67.50;;;18.70;52.12;101326.31;5022239;28;8831;-55
2021/01/24 05:59:02;;;;;;;;;1.00;1.00;19.60;67.50;;;18.69;52.39;101334.47;5028089;28;8800;-56
2021/01/24 06:01:31;;;;;;;;;1.00;1.00;19.90;67.60;;;18.66;52.36;101330.25;5026354;28;8863;-55
2021/01/24 06:03:59;;;;;;;;;0.00;0.00;19.90;67.90;;;18.68;52.61;101322.94;5028409;28;8807;-55
2021/01/24 06:06:27;;;;;;;;;0.00;0.00;19.90;67.80;;;18.69;52.09;101327.28;5024148;28;8933;-55
2021/01/24 06:08:54;;;;;;;;;0.00;0.00;20.00;67.00;;;18.69;51.90;101321.94;5027290;28;9710;-56
2021/01/24 06:11:21;;;;;;;;;1.00;1.00;19.70;66.80;;;18.67;51.87;101315.88;5028265;28;8811;-55
2021/01/24 06:13:55;;;;;;;;;2.75;2.00;19.90;67.20;;;18.66;52.37;101322.22;5015188;28;8848;-55
2021/01/24 06:16:34;;;;;;;;;1.00;1.00;19.70;67.50;;;18.67;52.53;101323.91;5011786;28;8808;-56
2021/01/24 06:19:09;;;;;;;;;0.75;0.75;19.60;67.70;;;18.66;52.49;101331.09;5009904;28;8833;-56
2021/01/24 06:21:47;;;;;;;;;0.50;0.00;19.70;67.70;;;18.65;52.41;101324.06;5023835;28;8824;-55
2021/01/24 06:24:52;;;;;;;;;1.50;1.00;19.70;67.80;;;18.65;52.33;101325.91;5006922;28;8853;-56
2021/01/24 06:27:27;;;;;;;;;0.00;0.00;19.70;67.70;;;18.62;52.45;101321.69;5006565;28;8809;-55
2021/01/24 06:29:57;;;;;;;;;1.50;1.00;19.70;67.80;;;18.61;52.36;101325.31;4999225;28;8848;-51
2021/01/24 06:32:31;;;;;;;;;0.25;0.25;19.80;67.80;;;18.60;52.42;101317.44;5027733;28;8932;-54
2021/01/24 06:35:25;;;;;;;;;2.50;0.00;19.70;67.80;;;18.60;52.55;101328.16;5027613;28;8784;-55
2021/01/24 06:38:02;;;;;;;;;0.00;0.00;19.70;67.80;;;18.58;52.36;101327.44;5012850;28;8796;-54
2021/01/24 06:40:32;;;;;;;;;0.25;0.25;19.60;67.80;;;18.56;52.60;101319.53;5024940;28;8847;-55
2021/01/24 06:43:04;;;;;;;;;1.00;1.00;19.80;68.10;;;18.57;52.77;101321.25;5025158;28;8846;-55
2021/01/24 06:45:30;;;;;;;;;1.50;1.00;19.70;68.00;;;18.55;52.43;101328.56;5012394;28;8832;-56
2021/01/24 06:48:00;;;;;;;;;3.00;1.25;19.60;67.90;;;18.53;52.39;101330.53;5022023;28;8812;-55
2021/01/24 06:50:45;;;;;;;;;1.00;0.75;19.60;67.90;;;18.53;52.43;101327.03;5027982;28;8900;-56
2021/01/24 06:53:26;;;;;;;;;1.00;1.00;19.60;67.80;;;18.49;52.35;101329.09;5023527;28;8796;-55
2021/01/24 06:56:09;;;;;;;;;0.75;0.75;19.60;67.80;;;18.49;52.62;101338.97;5023550;28;8815;-56
2021/01/24 06:58:50;;;;;;;;;1.00;1.00;19.60;67.70;;;18.47;52.50;101330.22;5019470;28;9469;-56
2021/01/24 07:01:36;;;;;;;;;1.00;1.00;19.50;67.70;;;18.46;52.49;101328.56;5031492;28;8794;-56
2021/01/24 07:04:21;;;;;;;;;1.50;1.00;19.40;67.70;;;18.44;52.59;101331.34;5033052;28;8786;-55
2021/01/24 07:06:50;;;;;;;;;1.00;1.00;19.50;67.70;;;18.44;52.57;101331.34;5025489;28;8840;-55
2021/01/24 07:09:25;;;;;;;;;1.00;1.00;19.50;67.70;;;18.42;52.31;101333.34;5018166;28;8792;-56
2021/01/24 07:12:06;;;;;;;;;1.00;1.00;19.50;67.60;;;18.41;52.59;101337.81;5034305;28;8799;-55
2021/01/24 07:14:36;;;;;;;;;1.75;1.75;19.50;67.70;;;18.38;52.50;101332.75;5015643;28;8796;-55
2021/01/24 07:17:09;;;;;;;;;1.00;1.00;19.30;67.60;;;18.38;52.37;101337.28;5029336;28;8858;-54
2021/01/24 07:19:45;;;;;;;;;2.00;1.00;19.30;67.60;;;18.37;52.46;101330.25;5019883;28;8768;-56
2021/01/24 07:22:13;;;;;;;;;1.50;1.00;19.30;67.60;;;18.37;52.42;101330.25;5020373;28;8819;-56
2021/01/24 07:24:43;;;;;;;;;1.75;1.75;19.50;67.70;;;18.36;52.28;101331.22;5028803;28;8814;-55
2021/01/24 07:27:13;;;;;;;;;2.00;1.00;19.40;67.80;;;18.35;52.39;101326.84;5029780;28;8820;-55
2021/01/24 07:29:40;;;;;;;;;0.75;0.75;19.40;67.90;;;18.34;52.37;101336.72;5024433;28;8796;-56
2021/01/24 07:32:16;;;;;;;;;1.00;1.00;19.40;67.90;;;18.34;52.60;101330.50;5022859;28;8802;-55
2021/01/24 07:34:50;;;;;;;;;1.00;1.00;19.40;67.90;;;18.33;52.51;101334.16;5026954;28;8875;-51
2021/01/24 07:37:17;;;;;;;;;1.00;1.00;19.20;67.80;;;18.32;52.53;101333.31;5014633;28;8792;-56
2021/01/24 07:39:50;;;;;;;;;2.00;1.50;19.30;67.90;;;18.31;52.45;101326.28;5020422;28;8853;-56
2021/01/24 07:42:18;;;;;;;;;1.00;1.00;19.30;67.90;;;18.32;52.35;101321.75;5025491;28;8820;-55
2021/01/24 07:44:46;;;;;;;;;0.50;0.50;19.30;67.90;;;18.30;52.54;101316.56;5027140;28;9583;-56
2021/01/24 07:47:15;;;;;;;;;2.50;2.00;19.30;67.90;;;18.29;52.62;101317.53;5017659;28;8812;-56
2021/01/24 07:49:43;;;;;;;;;1.00;1.00;19.30;67.90;;;18.29;52.71;101322.03;5017898;28;9494;-56
2021/01/24 07:52:10;;;;;;;;;2.00;2.00;19.40;68.10;;;18.27;52.34;101319.53;5025827;28;8810;-56
2021/01/24 07:54:40;;;;;;;;;0.50;0.50;19.20;67.90;;;18.28;52.68;101315.84;5021773;28;8938;-56
2021/01/24 07:57:08;;;;;;;;;2.00;1.00;19.20;68.00;;;18.26;52.38;101320.50;5025856;28;8808;-56
2021/01/24 07:59:36;;;;;;;;;1.50;1.50;19.10;67.90;;;18.25;52.75;101317.97;5011169;28;8796;-54
2021/01/24 08:02:04;;;;;;;;;1.50;1.50;19.10;68.00;;;18.23;52.72;101308.25;5028270;28;8871;-54
2021/01/24 08:04:36;;;;;;;;;1.00;1.00;19.20;68.10;;;18.23;52.75;101316.25;5026857;28;8897;-54
2021/01/24 08:07:07;;;;;;;;;0.00;0.00;19.10;68.10;;;18.22;52.78;101311.91;5033136;28;8800;-56
2021/01/24 08:09:35;;;;;;;;;1.00;1.00;19.10;68.10;;;18.21;52.64;101315.56;5022925;28;8818;-56
2021/01/24 08:12:12;;;;;;;;;1.00;1.00;19.30;68.20;;;18.23;52.93;101312.75;5026932;28;8806;-58
2021/01/24 08:14:40;;;;;;;;;0.75;0.75;19.20;68.30;;;18.21;53.05;101298.66;5021549;28;8899;-58
2021/01/24 08:17:16;;;;;;;;;1.00;1.00;19.10;68.40;;;18.19;52.26;101305.97;5014751;28;8815;-58
2021/01/24 08:19:44;;;;;;;;;2.00;1.00;19.00;67.80;;;18.18;52.05;101304.28;5024482;28;8824;-58
2021/01/24 08:22:12;;;;;;;;;2.00;1.75;19.20;67.60;;;18.18;52.07;101298.94;5026040;28;8792;-56
2021/01/24 08:24:41;;;;;;;;;2.75;1.50;19.10;67.60;;;18.18;51.98;101298.94;5017118;28;8952;-56
2021/01/24 08:27:09;;;;;;;;;2.00;2.00;19.10;67.50;;;18.20;52.10;101302.34;5030953;28;8811;-57
2021/01/24 08:29:37;;;;;;;;;3.25;3.00;19.00;67.60;;;18.22;52.18;101303.06;5032063;28;8806;-57
2021/01/24 08:32:07;;;;;;;;;2.00;2.00;19.30;67.90;;;18.19;52.09;101305.97;5026475;28;8806;-56
2021/01/24 08:34:34;;;;;;;;;3.25;2.00;19.00;67.50;;;18.19;52.29;101300.63;5026032;28;8799;-55
2021/01/24 08:37:05;;;;;;;;;1.75;1.00;19.10;67.90;;;18.19;52.17;101300.63;5024228;28;8819;-56
2021/01/24 08:39:32;;;;;;;;;3.25;3.25;19.20;67.90;;;18.17;52.43;101303.47;5022600;28;8797;-55
2021/01/24 08:41:59;;;;;;;;;3.00;2.00;18.90;68.30;;;18.16;52.30;101309.78;5027603;28;8898;-56
2021/01/24 08:44:26;;;;;;;;;1.75;1.75;19.00;67.80;;;18.15;52.52;101312.59;5021615;28;8794;-56
2021/01/24 08:47:01;;;;;;;;;1.25;1.00;19.10;67.80;;;18.16;52.38;101319.63;5030953;28;8852;-55
2021/01/24 08:49:29;;;;;;;;;2.00;1.00;19.10;67.80;;;18.14;52.17;101318.91;5003200;28;8879;-56
2021/01/24 08:52:04;;;;;;;;;0.75;0.75;19.10;67.80;;;18.12;52.33;101324.41;5032973;28;8811;-55
2021/01/24 08:54:32;;;;;;;;;2.00;1.00;19.30;67.80;;;18.10;52.34;101331.72;5021812;28;9444;-55
2021/01/24 08:57:20;;;;;;;;;2.00;1.00;19.30;67.90;;;18.09;52.39;101332.72;5030896;28;8820;-56
2021/01/24 08:59:50;;;;;;;;;1.25;1.25;19.20;67.90;;;18.08;52.56;101335.50;5029604;28;8808;-57
2021/01/24 09:02:30;;;;;;;;;1.75;1.75;19.00;67.90;;;18.08;52.55;101340.88;5028905;28;8806;-56
2021/01/24 09:04:58;;;;;;;;;2.00;2.00;19.20;67.90;;;18.08;52.49;101340.88;5022140;28;8789;-57
2021/01/24 09:07:45;;;;;;;;;1.00;1.00;19.10;67.90;;;18.05;52.40;101331.28;5014316;28;8826;-56
2021/01/24 09:10:28;;;;;;;;;0.75;0.75;19.10;67.90;;;18.05;52.50;101327.78;5020027;28;8790;-56
2021/01/24 09:13:03;;;;;;;;;0.75;0.75;19.10;67.80;;;18.04;52.50;101323.38;5028742;28;8810;-56
2021/01/24 09:15:34;;;;;;;;;1.00;1.00;18.90;67.60;;;18.04;52.41;101326.06;5020895;28;9515;-57
2021/01/24 09:18:02;;;;;;;;;1.25;1.00;19.00;67.80;;;18.00;52.34;101322.84;5022758;28;8783;-57
2021/01/24 09:20:30;;;;;;;;;1.25;0.75;19.00;67.80;;;18.01;52.66;101332.53;5035992;28;8788;-55
2021/01/24 09:22:57;;;;;;;;;1.00;1.00;18.90;67.80;;;17.99;52.54;101330.00;5027933;28;8792;-55
2021/01/24 09:25:24;;;;;;;;;1.00;1.00;19.00;68.00;;;17.98;52.70;101322.94;5030542;28;8842;-55
2021/01/24 09:27:50;;;;;;;;;0.50;0.50;19.00;68.00;;;17.98;52.79;101330.97;5021422;28;8991;-55
2021/01/24 09:30:18;;;;;;;;;1.50;0.75;19.00;67.90;;;17.96;52.70;101335.63;5019530;28;8896;-53
2021/01/24 09:32:45;;;;;;;;;2.00;2.00;19.00;68.00;;;17.95;52.70;101336.59;5016886;28;8792;-55
2021/01/24 09:35:13;;;;;;;;;1.00;1.00;19.00;67.90;;;17.95;52.55;101352.63;5031960;28;8834;-55
2021/01/24 09:37:40;;;;;;;;;1.00;1.00;19.00;68.00;;;17.92;52.83;101344.91;5033154;28;8881;-55
2021/01/24 09:40:08;;;;;;;;;0.75;0.75;19.00;67.90;;;17.92;52.75;101352.06;5027197;28;8792;-55
2021/01/24 09:42:35;;;;;;;;;0.00;0.00;18.90;67.90;;;17.91;52.67;101355.72;5024651;28;8786;-51
2021/01/24 09:45:02;;;;;;;;;1.00;1.00;19.00;68.00;;;17.89;52.61;101355.88;5026519;28;9507;-54
2021/01/24 09:47:29;;;;;;;;;0.75;0.75;18.90;68.00;;;17.89;52.66;101360.38;5024038;28;8791;-55
2021/01/24 09:49:56;;;;;;;;;1.00;1.00;19.00;68.00;;;17.86;52.68;101364.16;5025924;28;8769;-54
2021/01/24 09:52:23;;;;;;;;;0.75;0.75;18.90;68.00;;;17.85;52.53;101364.28;5023391;28;8811;-55
2021/01/24 09:54:50;;;;;;;;;2.25;1.00;18.90;67.90;;;17.85;52.74;101372.31;5025466;28;9513;-55
2021/01/24 09:57:17;;;;;;;;;1.00;0.75;18.80;67.90;;;17.83;52.85;101375.09;5029305;28;8802;-55
2021/01/24 09:59:43;;;;;;;;;0.00;0.00;18.90;68.00;;;17.82;52.71;101368.06;5029984;28;8804;-54
2021/01/24 10:02:10;;;;;;;;;0.75;0.75;19.00;68.10;;;17.81;52.80;101368.19;5031164;28;8800;-54
2021/01/24 10:04:37;;;;;;;;;0.75;0.75;18.70;67.80;;;17.81;52.53;101371.72;5020749;28;8831;-55
2021/01/24 10:07:04;;;;;;;;;0.00;0.00;19.00;68.00;;;17.78;52.81;101366.59;5032105;28;8856;-54
2021/01/24 10:09:31;;;;;;;;;0.75;0.75;19.00;67.90;;;17.77;52.83;101360.41;5024177;28;8788;-55
2021/01/24 10:11:57;;;;;;;;;0.50;0.50;18.80;67.80;;;17.78;52.63;101358.59;5032408;28;8828;-55
2021/01/24 10:14:24;;;;;;;;;1.50;1.00;18.90;67.90;;;17.76;52.70;101357.91;5024632;28;8884;-56
2021/01/24 10:16:51;;;;;;;;;0.75;0.75;19.00;68.00;;;17.74;52.48;101354.50;5027409;28;8947;-56
2021/01/24 10:19:18;;;;;;;;;0.75;0.75;18.70;67.90;;;17.74;52.61;101359.84;5025536;28;8841;-56
2021/01/24 10:21:45;;;;;;;;;0.00;0.00;19.00;68.20;;;17.72;52.67;101351.94;5022375;28;8834;-56
2021/01/24 10:24:11;;;;;;;;;0.00;0.00;18.90;68.20;;;17.72;52.92;101351.94;5025788;28;8860;-56
2021/01/24 10:26:38;;;;;;;;;0.75;0.75;18.70;68.00;;;17.72;52.90;101348.44;5030359;28;9530;-56
2021/01/24 10:29:05;;;;;;;;;0.75;0.75;18.70;68.10;;;17.71;52.80;101346.75;5033571;28;8905;-56
2021/01/24 10:31:32;;;;;;;;;1.75;0.75;18.90;68.20;;;17.70;52.81;101337.03;5029607;28;8802;-55
2021/01/24 10:33:59;;;;;;;;;0.75;0.75;18.70;68.10;;;17.69;52.76;101336.19;5027433;28;8845;-56